sensor_id;sensor_type;location;lat;lon;timestamp;P1;durP1;ratioP1;P2;durP2;ratioP2
12900;SDS011;6518;50.930;5.344;2023-01-19T00:01:12;18.60;;;12.00;;
12900;SDS011;6518;50.930;5.344;2023-01-19T00:03:39;16.93;;;11.93;;
12900;SDS011;6518;50.930;5.344;2023-01-19T00:06:06;16.73;;;12.77;;
12900;SDS011;6518;50.930;5.344;2023-01-19T00:08:34;17.17;;;12.10;;
12900;SDS011;6518;50.930;5.344;2023-01-19T00:11:01;18.93;;;13.57;;
12900;SDS011;6518;50.930;5.344;2023-01-19T00:13:28;15.73;;;12.27;;
12900;SDS011;6518;50.930;5.344;2023-01-19T00:15:57;14.97;;;11.30;;
12900;SDS011;6518;50.930;5.344;2023-01-19T00:18:23;17.67;;;12.40;;
12900;SDS011;6518;50.930;5.344;2023-01-19T00:20:50;15.60;;;11.93;;
12900;SDS011;6518;50.930;5.344;2023-01-19T00:23:17;16.47;;;11.90;;
12900;SDS011;6518;50.930;5.344;2023-01-19T00:25:45;18.50;;;11.00;;
12900;SDS011;6518;50.930;5.344;2023-01-19T00:28:13;15.53;;;12.40;;
12900;SDS011;6518;50.930;5.344;2023-01-19T00:30:41;15.43;;;11.10;;
12900;SDS011;6518;50.930;5.344;2023-01-19T00:33:10;15.67;;;12.33;;
12900;SDS011;6518;50.930;5.344;2023-01-19T00:35:39;16.80;;;11.90;;
12900;SDS011;6518;50.930;5.344;2023-01-19T00:38:07;16.97;;;11.47;;
12900;SDS011;6518;50.930;5.344;2023-01-19T00:40:34;17.63;;;12.77;;
12900;SDS011;6518;50.930;5.344;2023-01-19T00:43:01;13.83;;;10.67;;
12900;SDS011;6518;50.930;5.344;2023-01-19T00:45:29;15.53;;;11.50;;
12900;SDS011;6518;50.930;5.344;2023-01-19T00:47:56;16.47;;;11.67;;
12900;SDS011;6518;50.930;5.344;2023-01-19T00:50:24;18.00;;;11.80;;
12900;SDS011;6518;50.930;5.344;2023-01-19T00:52:52;14.77;;;11.40;;
12900;SDS011;6518;50.930;5.344;2023-01-19T00:55:20;15.00;;;11.83;;
12900;SDS011;6518;50.930;5.344;2023-01-19T00:57:47;17.03;;;11.27;;
12900;SDS011;6518;50.930;5.344;2023-01-19T01:00:15;14.60;;;10.87;;
12900;SDS011;6518;50.930;5.344;2023-01-19T01:02:43;14.23;;;11.33;;
12900;SDS011;6518;50.930;5.344;2023-01-19T01:05:10;17.37;;;11.93;;
12900;SDS011;6518;50.930;5.344;2023-01-19T01:07:39;15.80;;;10.83;;
12900;SDS011;6518;50.930;5.344;2023-01-19T01:10:10;15.57;;;11.77;;
12900;SDS011;6518;50.930;5.344;2023-01-19T01:12:40;14.30;;;11.90;;
12900;SDS011;6518;50.930;5.344;2023-01-19T01:15:08;15.43;;;11.70;;
12900;SDS011;6518;50.930;5.344;2023-01-19T01:17:37;16.10;;;11.43;;
12900;SDS011;6518;50.930;5.344;2023-01-19T01:20:11;17.03;;;12.00;;
12900;SDS011;6518;50.930;5.344;2023-01-19T01:22:43;19.50;;;12.90;;
12900;SDS011;6518;50.930;5.344;2023-01-19T01:25:11;18.30;;;12.43;;
12900;SDS011;6518;50.930;5.344;2023-01-19T01:27:38;16.03;;;12.00;;
12900;SDS011;6518;50.930;5.344;2023-01-19T01:30:07;19.10;;;13.23;;
12900;SDS011;6518;50.930;5.344;2023-01-19T01:32:35;17.70;;;12.87;;
12900;SDS011;6518;50.930;5.344;2023-01-19T01:35:02;16.13;;;12.33;;
12900;SDS011;6518;50.930;5.344;2023-01-19T01:37:29;19.37;;;13.40;;
12900;SDS011;6518;50.930;5.344;2023-01-19T01:39:57;17.17;;;12.23;;
12900;SDS011;6518;50.930;5.344;2023-01-19T01:42:25;17.47;;;13.00;;
12900;SDS011;6518;50.930;5.344;2023-01-19T01:44:54;16.90;;;12.50;;
12900;SDS011;6518;50.930;5.344;2023-01-19T01:47:25;18.33;;;12.73;;
12900;SDS011;6518;50.930;5.344;2023-01-19T01:49:58;22.40;;;13.40;;
12900;SDS011;6518;50.930;5.344;2023-01-19T01:52:31;18.57;;;13.37;;
12900;SDS011;6518;50.930;5.344;2023-01-19T01:55:02;19.73;;;12.90;;
12900;SDS011;6518;50.930;5.344;2023-01-19T01:57:33;19.07;;;13.23;;
12900;SDS011;6518;50.930;5.344;2023-01-19T02:00:01;20.17;;;13.40;;
12900;SDS011;6518;50.930;5.344;2023-01-19T02:02:30;19.37;;;13.03;;
12900;SDS011;6518;50.930;5.344;2023-01-19T02:05:20;19.43;;;12.43;;
12900;SDS011;6518;50.930;5.344;2023-01-19T02:07:53;20.37;;;13.93;;
12900;SDS011;6518;50.930;5.344;2023-01-19T02:10:42;19.53;;;12.93;;
12900;SDS011;6518;50.930;5.344;2023-01-19T02:13:27;15.60;;;11.97;;
12900;SDS011;6518;50.930;5.344;2023-01-19T02:15:56;18.03;;;12.67;;
12900;SDS011;6518;50.930;5.344;2023-01-19T02:18:26;21.10;;;12.87;;
12900;SDS011;6518;50.930;5.344;2023-01-19T02:20:57;18.30;;;13.30;;
12900;SDS011;6518;50.930;5.344;2023-01-19T02:23:34;19.57;;;13.10;;
12900;SDS011;6518;50.930;5.344;2023-01-19T02:26:04;17.93;;;13.00;;
12900;SDS011;6518;50.930;5.344;2023-01-19T02:28:33;18.13;;;12.57;;
12900;SDS011;6518;50.930;5.344;2023-01-19T02:31:04;19.47;;;13.97;;
12900;SDS011;6518;50.930;5.344;2023-01-19T02:33:31;21.93;;;14.17;;
12900;SDS011;6518;50.930;5.344;2023-01-19T02:35:58;20.37;;;13.13;;
12900;SDS011;6518;50.930;5.344;2023-01-19T02:38:26;23.40;;;13.83;;
12900;SDS011;6518;50.930;5.344;2023-01-19T02:40:56;22.63;;;15.13;;
12900;SDS011;6518;50.930;5.344;2023-01-19T02:43:25;17.90;;;13.20;;
12900;SDS011;6518;50.930;5.344;2023-01-19T02:45:53;20.83;;;13.90;;
12900;SDS011;6518;50.930;5.344;2023-01-19T02:48:21;22.80;;;14.13;;
12900;SDS011;6518;50.930;5.344;2023-01-19T02:50:48;22.97;;;13.27;;
12900;SDS011;6518;50.930;5.344;2023-01-19T02:53:29;24.03;;;14.00;;
12900;SDS011;6518;50.930;5.344;2023-01-19T02:56:27;22.73;;;14.03;;
12900;SDS011;6518;50.930;5.344;2023-01-19T02:59:12;24.03;;;14.80;;
12900;SDS011;6518;50.930;5.344;2023-01-19T03:01:55;25.00;;;14.40;;
12900;SDS011;6518;50.930;5.344;2023-01-19T03:04:32;20.77;;;13.80;;
12900;SDS011;6518;50.930;5.344;2023-01-19T03:07:07;18.70;;;13.30;;
12900;SDS011;6518;50.930;5.344;2023-01-19T03:09:40;21.30;;;14.20;;
12900;SDS011;6518;50.930;5.344;2023-01-19T03:12:16;22.73;;;13.80;;
12900;SDS011;6518;50.930;5.344;2023-01-19T03:14:50;20.00;;;13.20;;
12900;SDS011;6518;50.930;5.344;2023-01-19T03:17:22;22.17;;;14.13;;
12900;SDS011;6518;50.930;5.344;2023-01-19T03:19:52;24.80;;;13.87;;
12900;SDS011;6518;50.930;5.344;2023-01-19T03:22:20;26.93;;;14.23;;
12900;SDS011;6518;50.930;5.344;2023-01-19T03:24:50;23.40;;;14.70;;
12900;SDS011;6518;50.930;5.344;2023-01-19T03:27:21;22.57;;;13.53;;
12900;SDS011;6518;50.930;5.344;2023-01-19T03:29:52;20.33;;;13.43;;
12900;SDS011;6518;50.930;5.344;2023-01-19T03:32:23;25.50;;;13.93;;
12900;SDS011;6518;50.930;5.344;2023-01-19T03:34:54;20.37;;;13.47;;
12900;SDS011;6518;50.930;5.344;2023-01-19T03:37:23;24.57;;;14.17;;
12900;SDS011;6518;50.930;5.344;2023-01-19T03:39:52;25.23;;;14.53;;
12900;SDS011;6518;50.930;5.344;2023-01-19T03:42:21;19.77;;;13.17;;
12900;SDS011;6518;50.930;5.344;2023-01-19T03:44:50;22.03;;;13.40;;
12900;SDS011;6518;50.930;5.344;2023-01-19T03:47:19;23.50;;;13.63;;
12900;SDS011;6518;50.930;5.344;2023-01-19T03:49:47;20.93;;;13.50;;
12900;SDS011;6518;50.930;5.344;2023-01-19T03:52:16;20.97;;;13.77;;
12900;SDS011;6518;50.930;5.344;2023-01-19T03:54:43;21.67;;;11.53;;
12900;SDS011;6518;50.930;5.344;2023-01-19T03:57:09;19.17;;;14.23;;
12900;SDS011;6518;50.930;5.344;2023-01-19T03:59:38;20.50;;;13.53;;
12900;SDS011;6518;50.930;5.344;2023-01-19T04:02:05;20.27;;;13.27;;
12900;SDS011;6518;50.930;5.344;2023-01-19T04:04:31;24.80;;;14.13;;
12900;SDS011;6518;50.930;5.344;2023-01-19T04:06:58;23.23;;;14.60;;
12900;SDS011;6518;50.930;5.344;2023-01-19T04:09:25;25.10;;;14.97;;
12900;SDS011;6518;50.930;5.344;2023-01-19T04:11:52;21.37;;;14.17;;
12900;SDS011;6518;50.930;5.344;2023-01-19T04:14:20;23.10;;;13.40;;
12900;SDS011;6518;50.930;5.344;2023-01-19T04:16:48;20.20;;;13.70;;
12900;SDS011;6518;50.930;5.344;2023-01-19T04:19:15;24.60;;;13.20;;
12900;SDS011;6518;50.930;5.344;2023-01-19T04:21:42;24.40;;;14.47;;
12900;SDS011;6518;50.930;5.344;2023-01-19T04:24:08;23.33;;;13.33;;
12900;SDS011;6518;50.930;5.344;2023-01-19T04:26:36;25.37;;;13.93;;
12900;SDS011;6518;50.930;5.344;2023-01-19T04:29:02;21.03;;;14.00;;
12900;SDS011;6518;50.930;5.344;2023-01-19T04:31:29;26.00;;;14.47;;
12900;SDS011;6518;50.930;5.344;2023-01-19T04:33:58;22.03;;;13.80;;
12900;SDS011;6518;50.930;5.344;2023-01-19T04:36:25;23.37;;;14.47;;
12900;SDS011;6518;50.930;5.344;2023-01-19T04:38:52;25.13;;;14.57;;
12900;SDS011;6518;50.930;5.344;2023-01-19T04:41:19;29.73;;;15.57;;
12900;SDS011;6518;50.930;5.344;2023-01-19T04:43:46;24.00;;;14.27;;
12900;SDS011;6518;50.930;5.344;2023-01-19T04:46:13;24.17;;;14.93;;
12900;SDS011;6518;50.930;5.344;2023-01-19T04:48:40;23.97;;;15.17;;
12900;SDS011;6518;50.930;5.344;2023-01-19T04:51:08;23.50;;;15.37;;
12900;SDS011;6518;50.930;5.344;2023-01-19T04:53:35;22.10;;;13.77;;
12900;SDS011;6518;50.930;5.344;2023-01-19T04:56:01;25.43;;;14.73;;
12900;SDS011;6518;50.930;5.344;2023-01-19T04:58:28;23.20;;;15.20;;
12900;SDS011;6518;50.930;5.344;2023-01-19T05:00:55;24.80;;;14.70;;
12900;SDS011;6518;50.930;5.344;2023-01-19T05:03:22;24.90;;;15.53;;
12900;SDS011;6518;50.930;5.344;2023-01-19T05:05:48;22.53;;;14.10;;
12900;SDS011;6518;50.930;5.344;2023-01-19T05:08:16;25.10;;;14.80;;
12900;SDS011;6518;50.930;5.344;2023-01-19T05:10:43;23.77;;;15.37;;
12900;SDS011;6518;50.930;5.344;2023-01-19T05:13:10;22.83;;;13.53;;
12900;SDS011;6518;50.930;5.344;2023-01-19T05:15:38;21.73;;;14.00;;
12900;SDS011;6518;50.930;5.344;2023-01-19T05:18:04;24.10;;;13.83;;
12900;SDS011;6518;50.930;5.344;2023-01-19T05:20:31;21.77;;;14.20;;
12900;SDS011;6518;50.930;5.344;2023-01-19T05:22:58;23.93;;;14.93;;
12900;SDS011;6518;50.930;5.344;2023-01-19T05:25:26;27.63;;;15.63;;
12900;SDS011;6518;50.930;5.344;2023-01-19T05:27:53;23.77;;;14.33;;
12900;SDS011;6518;50.930;5.344;2023-01-19T05:30:20;24.63;;;14.73;;
12900;SDS011;6518;50.930;5.344;2023-01-19T05:32:47;23.47;;;15.50;;
12900;SDS011;6518;50.930;5.344;2023-01-19T05:35:13;23.70;;;13.93;;
12900;SDS011;6518;50.930;5.344;2023-01-19T05:37:41;26.47;;;14.50;;
12900;SDS011;6518;50.930;5.344;2023-01-19T05:40:08;24.50;;;15.00;;
12900;SDS011;6518;50.930;5.344;2023-01-19T05:42:37;23.40;;;14.00;;
12900;SDS011;6518;50.930;5.344;2023-01-19T05:45:04;23.53;;;14.53;;
12900;SDS011;6518;50.930;5.344;2023-01-19T05:47:32;22.87;;;14.63;;
12900;SDS011;6518;50.930;5.344;2023-01-19T05:49:59;22.47;;;14.47;;
12900;SDS011;6518;50.930;5.344;2023-01-19T05:52:25;22.47;;;14.90;;
12900;SDS011;6518;50.930;5.344;2023-01-19T05:54:52;25.20;;;15.33;;
12900;SDS011;6518;50.930;5.344;2023-01-19T05:57:19;30.87;;;15.83;;
12900;SDS011;6518;50.930;5.344;2023-01-19T05:59:48;27.67;;;15.83;;
12900;SDS011;6518;50.930;5.344;2023-01-19T06:02:14;28.40;;;15.87;;
12900;SDS011;6518;50.930;5.344;2023-01-19T06:04:41;24.27;;;15.57;;
12900;SDS011;6518;50.930;5.344;2023-01-19T06:07:08;25.10;;;14.80;;
12900;SDS011;6518;50.930;5.344;2023-01-19T06:09:35;23.97;;;14.93;;
12900;SDS011;6518;50.930;5.344;2023-01-19T06:12:02;27.93;;;15.10;;
12900;SDS011;6518;50.930;5.344;2023-01-19T06:14:30;25.60;;;15.83;;
12900;SDS011;6518;50.930;5.344;2023-01-19T06:16:58;30.00;;;15.83;;
12900;SDS011;6518;50.930;5.344;2023-01-19T06:19:25;28.00;;;15.37;;
12900;SDS011;6518;50.930;5.344;2023-01-19T06:21:51;27.60;;;16.60;;
12900;SDS011;6518;50.930;5.344;2023-01-19T06:24:18;28.27;;;15.70;;
12900;SDS011;6518;50.930;5.344;2023-01-19T06:26:45;27.53;;;14.67;;
12900;SDS011;6518;50.930;5.344;2023-01-19T06:29:13;24.47;;;15.43;;
12900;SDS011;6518;50.930;5.344;2023-01-19T06:31:41;23.63;;;14.07;;
12900;SDS011;6518;50.930;5.344;2023-01-19T06:34:09;24.97;;;16.00;;
12900;SDS011;6518;50.930;5.344;2023-01-19T06:36:36;28.70;;;16.10;;
12900;SDS011;6518;50.930;5.344;2023-01-19T06:39:03;32.40;;;16.77;;
12900;SDS011;6518;50.930;5.344;2023-01-19T06:41:30;24.17;;;15.50;;
12900;SDS011;6518;50.930;5.344;2023-01-19T06:43:57;25.00;;;13.93;;
12900;SDS011;6518;50.930;5.344;2023-01-19T06:46:24;26.57;;;16.00;;
12900;SDS011;6518;50.930;5.344;2023-01-19T06:48:51;27.87;;;16.23;;
12900;SDS011;6518;50.930;5.344;2023-01-19T06:51:20;28.70;;;16.97;;
12900;SDS011;6518;50.930;5.344;2023-01-19T06:53:47;30.80;;;16.50;;
12900;SDS011;6518;50.930;5.344;2023-01-19T06:56:14;27.90;;;16.67;;
12900;SDS011;6518;50.930;5.344;2023-01-19T06:58:41;25.43;;;15.77;;
12900;SDS011;6518;50.930;5.344;2023-01-19T07:01:08;28.00;;;15.77;;
12900;SDS011;6518;50.930;5.344;2023-01-19T07:03:35;26.50;;;17.33;;
12900;SDS011;6518;50.930;5.344;2023-01-19T07:06:02;29.00;;;17.27;;
12900;SDS011;6518;50.930;5.344;2023-01-19T07:08:33;31.50;;;17.63;;
12900;SDS011;6518;50.930;5.344;2023-01-19T07:11:00;28.90;;;17.33;;
12900;SDS011;6518;50.930;5.344;2023-01-19T07:13:28;27.17;;;16.37;;
12900;SDS011;6518;50.930;5.344;2023-01-19T07:15:55;34.90;;;17.60;;
12900;SDS011;6518;50.930;5.344;2023-01-19T07:18:22;29.93;;;17.27;;
12900;SDS011;6518;50.930;5.344;2023-01-19T07:20:49;30.57;;;17.60;;
12900;SDS011;6518;50.930;5.344;2023-01-19T07:23:16;29.70;;;17.27;;
12900;SDS011;6518;50.930;5.344;2023-01-19T07:25:45;33.13;;;17.60;;
12900;SDS011;6518;50.930;5.344;2023-01-19T07:28:11;27.90;;;16.90;;
12900;SDS011;6518;50.930;5.344;2023-01-19T07:30:40;27.37;;;16.57;;
12900;SDS011;6518;50.930;5.344;2023-01-19T07:33:07;26.87;;;17.03;;
12900;SDS011;6518;50.930;5.344;2023-01-19T07:35:34;27.37;;;16.87;;
12900;SDS011;6518;50.930;5.344;2023-01-19T07:38:01;28.80;;;17.40;;
12900;SDS011;6518;50.930;5.344;2023-01-19T07:40:29;31.83;;;18.13;;
12900;SDS011;6518;50.930;5.344;2023-01-19T07:43:01;36.60;;;16.90;;
12900;SDS011;6518;50.930;5.344;2023-01-19T07:45:28;29.73;;;16.37;;
12900;SDS011;6518;50.930;5.344;2023-01-19T07:47:55;28.63;;;16.93;;
12900;SDS011;6518;50.930;5.344;2023-01-19T07:50:22;32.57;;;17.73;;
12900;SDS011;6518;50.930;5.344;2023-01-19T07:52:51;30.07;;;17.33;;
12900;SDS011;6518;50.930;5.344;2023-01-19T07:55:18;27.87;;;16.60;;
12900;SDS011;6518;50.930;5.344;2023-01-19T07:57:47;27.87;;;16.07;;
12900;SDS011;6518;50.930;5.344;2023-01-19T08:00:17;26.73;;;17.27;;
12900;SDS011;6518;50.930;5.344;2023-01-19T08:02:46;29.73;;;17.70;;
12900;SDS011;6518;50.930;5.344;2023-01-19T08:05:14;30.80;;;17.00;;
12900;SDS011;6518;50.930;5.344;2023-01-19T08:07:41;31.53;;;17.90;;
12900;SDS011;6518;50.930;5.344;2023-01-19T08:10:09;28.03;;;17.00;;
12900;SDS011;6518;50.930;5.344;2023-01-19T08:12:36;29.80;;;17.23;;
12900;SDS011;6518;50.930;5.344;2023-01-19T08:15:04;27.80;;;17.03;;
12900;SDS011;6518;50.930;5.344;2023-01-19T08:17:32;29.07;;;16.73;;
12900;SDS011;6518;50.930;5.344;2023-01-19T08:20:00;28.90;;;16.37;;
12900;SDS011;6518;50.930;5.344;2023-01-19T08:22:27;25.63;;;17.13;;
12900;SDS011;6518;50.930;5.344;2023-01-19T08:24:54;24.30;;;16.83;;
12900;SDS011;6518;50.930;5.344;2023-01-19T08:27:21;28.63;;;16.07;;
12900;SDS011;6518;50.930;5.344;2023-01-19T08:29:47;29.30;;;18.13;;
12900;SDS011;6518;50.930;5.344;2023-01-19T08:32:14;31.17;;;17.57;;
12900;SDS011;6518;50.930;5.344;2023-01-19T08:34:42;29.33;;;16.57;;
12900;SDS011;6518;50.930;5.344;2023-01-19T08:37:09;28.30;;;16.73;;
12900;SDS011;6518;50.930;5.344;2023-01-19T08:39:36;28.93;;;17.40;;
12900;SDS011;6518;50.930;5.344;2023-01-19T08:42:03;25.23;;;16.60;;
12900;SDS011;6518;50.930;5.344;2023-01-19T08:44:30;28.80;;;16.70;;
12900;SDS011;6518;50.930;5.344;2023-01-19T08:46:57;31.40;;;17.83;;
12900;SDS011;6518;50.930;5.344;2023-01-19T08:49:24;29.60;;;17.23;;
12900;SDS011;6518;50.930;5.344;2023-01-19T08:51:52;34.20;;;18.83;;
12900;SDS011;6518;50.930;5.344;2023-01-19T08:54:20;29.00;;;17.10;;
12900;SDS011;6518;50.930;5.344;2023-01-19T08:56:48;31.53;;;16.93;;
12900;SDS011;6518;50.930;5.344;2023-01-19T08:59:15;28.30;;;17.57;;
12900;SDS011;6518;50.930;5.344;2023-01-19T09:01:42;32.10;;;18.10;;
12900;SDS011;6518;50.930;5.344;2023-01-19T09:04:08;28.80;;;16.80;;
12900;SDS011;6518;50.930;5.344;2023-01-19T09:06:35;35.13;;;18.83;;
12900;SDS011;6518;50.930;5.344;2023-01-19T09:09:03;28.93;;;19.80;;
12900;SDS011;6518;50.930;5.344;2023-01-19T09:11:30;31.43;;;20.60;;
12900;SDS011;6518;50.930;5.344;2023-01-19T09:13:59;37.00;;;21.60;;
12900;SDS011;6518;50.930;5.344;2023-01-19T09:16:26;34.67;;;21.03;;
12900;SDS011;6518;50.930;5.344;2023-01-19T09:18:53;33.83;;;21.50;;
12900;SDS011;6518;50.930;5.344;2023-01-19T09:21:20;32.37;;;18.97;;
12900;SDS011;6518;50.930;5.344;2023-01-19T09:23:47;35.43;;;19.73;;
12900;SDS011;6518;50.930;5.344;2023-01-19T09:26:15;28.20;;;18.90;;
12900;SDS011;6518;50.930;5.344;2023-01-19T09:28:42;29.10;;;17.47;;
12900;SDS011;6518;50.930;5.344;2023-01-19T09:31:09;33.57;;;19.23;;
12900;SDS011;6518;50.930;5.344;2023-01-19T09:33:36;31.53;;;18.83;;
12900;SDS011;6518;50.930;5.344;2023-01-19T09:36:03;31.23;;;19.07;;
12900;SDS011;6518;50.930;5.344;2023-01-19T09:38:29;30.17;;;17.73;;
12900;SDS011;6518;50.930;5.344;2023-01-19T09:40:57;26.60;;;17.37;;
12900;SDS011;6518;50.930;5.344;2023-01-19T09:43:34;27.40;;;18.20;;
12900;SDS011;6518;50.930;5.344;2023-01-19T09:46:05;27.80;;;16.70;;
12900;SDS011;6518;50.930;5.344;2023-01-19T09:48:45;32.80;;;17.47;;
12900;SDS011;6518;50.930;5.344;2023-01-19T09:51:17;25.47;;;16.70;;
12900;SDS011;6518;50.930;5.344;2023-01-19T09:53:51;27.33;;;17.10;;
12900;SDS011;6518;50.930;5.344;2023-01-19T09:56:22;26.80;;;16.77;;
12900;SDS011;6518;50.930;5.344;2023-01-19T09:58:50;25.73;;;16.07;;
12900;SDS011;6518;50.930;5.344;2023-01-19T10:01:31;26.83;;;17.50;;
12900;SDS011;6518;50.930;5.344;2023-01-19T10:04:30;31.07;;;17.10;;
12900;SDS011;6518;50.930;5.344;2023-01-19T10:07:05;27.47;;;17.63;;
12900;SDS011;6518;50.930;5.344;2023-01-19T10:09:39;26.90;;;18.03;;
12900;SDS011;6518;50.930;5.344;2023-01-19T10:12:16;43.17;;;29.63;;
12900;SDS011;6518;50.930;5.344;2023-01-19T10:14:54;35.63;;;20.93;;
12900;SDS011;6518;50.930;5.344;2023-01-19T10:17:31;30.53;;;18.03;;
12900;SDS011;6518;50.930;5.344;2023-01-19T10:20:07;29.03;;;18.13;;
12900;SDS011;6518;50.930;5.344;2023-01-19T10:22:42;29.43;;;18.60;;
12900;SDS011;6518;50.930;5.344;2023-01-19T10:25:13;29.97;;;18.57;;
12900;SDS011;6518;50.930;5.344;2023-01-19T10:27:43;34.67;;;20.10;;
12900;SDS011;6518;50.930;5.344;2023-01-19T10:30:15;29.03;;;19.30;;
12900;SDS011;6518;50.930;5.344;2023-01-19T10:32:46;29.77;;;19.03;;
12900;SDS011;6518;50.930;5.344;2023-01-19T10:35:15;28.93;;;19.37;;
12900;SDS011;6518;50.930;5.344;2023-01-19T10:37:47;28.87;;;19.43;;
12900;SDS011;6518;50.930;5.344;2023-01-19T10:40:16;30.30;;;19.60;;
12900;SDS011;6518;50.930;5.344;2023-01-19T10:42:48;35.13;;;20.10;;
12900;SDS011;6518;50.930;5.344;2023-01-19T10:45:16;29.13;;;19.60;;
12900;SDS011;6518;50.930;5.344;2023-01-19T10:47:44;37.27;;;19.33;;
12900;SDS011;6518;50.930;5.344;2023-01-19T10:50:22;31.77;;;19.47;;
12900;SDS011;6518;50.930;5.344;2023-01-19T10:52:51;32.70;;;19.10;;
12900;SDS011;6518;50.930;5.344;2023-01-19T10:55:23;33.93;;;18.67;;
12900;SDS011;6518;50.930;5.344;2023-01-19T10:57:52;33.20;;;19.00;;
12900;SDS011;6518;50.930;5.344;2023-01-19T11:00:31;30.63;;;18.00;;
12900;SDS011;6518;50.930;5.344;2023-01-19T11:03:02;32.83;;;18.47;;
12900;SDS011;6518;50.930;5.344;2023-01-19T11:05:30;35.03;;;18.53;;
12900;SDS011;6518;50.930;5.344;2023-01-19T11:07:58;32.40;;;19.03;;
12900;SDS011;6518;50.930;5.344;2023-01-19T11:10:26;29.37;;;16.90;;
12900;SDS011;6518;50.930;5.344;2023-01-19T11:12:54;32.87;;;18.47;;
12900;SDS011;6518;50.930;5.344;2023-01-19T11:15:27;33.67;;;19.83;;
12900;SDS011;6518;50.930;5.344;2023-01-19T11:17:58;31.33;;;19.43;;
12900;SDS011;6518;50.930;5.344;2023-01-19T11:20:28;33.07;;;19.07;;
12900;SDS011;6518;50.930;5.344;2023-01-19T11:23:04;32.33;;;19.57;;
12900;SDS011;6518;50.930;5.344;2023-01-19T11:25:33;33.60;;;18.70;;
12900;SDS011;6518;50.930;5.344;2023-01-19T11:28:01;34.10;;;19.97;;
12900;SDS011;6518;50.930;5.344;2023-01-19T11:30:28;32.13;;;19.73;;
12900;SDS011;6518;50.930;5.344;2023-01-19T11:32:57;29.63;;;18.37;;
12900;SDS011;6518;50.930;5.344;2023-01-19T11:35:31;30.03;;;17.70;;
12900;SDS011;6518;50.930;5.344;2023-01-19T11:38:04;29.63;;;16.93;;
12900;SDS011;6518;50.930;5.344;2023-01-19T11:40:32;27.20;;;15.10;;
12900;SDS011;6518;50.930;5.344;2023-01-19T11:43:00;25.40;;;15.87;;
12900;SDS011;6518;50.930;5.344;2023-01-19T11:45:27;25.53;;;15.80;;
12900;SDS011;6518;50.930;5.344;2023-01-19T11:47:55;27.70;;;16.30;;
12900;SDS011;6518;50.930;5.344;2023-01-19T11:50:22;23.83;;;14.67;;
12900;SDS011;6518;50.930;5.344;2023-01-19T11:52:54;27.33;;;14.50;;
12900;SDS011;6518;50.930;5.344;2023-01-19T11:55:27;25.63;;;15.23;;
12900;SDS011;6518;50.930;5.344;2023-01-19T11:58:01;23.07;;;14.03;;
12900;SDS011;6518;50.930;5.344;2023-01-19T12:00:31;24.53;;;14.73;;
12900;SDS011;6518;50.930;5.344;2023-01-19T12:03:03;25.40;;;15.03;;
12900;SDS011;6518;50.930;5.344;2023-01-19T12:05:38;24.57;;;14.60;;
12900;SDS011;6518;50.930;5.344;2023-01-19T12:08:10;24.07;;;14.30;;
12900;SDS011;6518;50.930;5.344;2023-01-19T12:10:42;22.40;;;14.50;;
12900;SDS011;6518;50.930;5.344;2023-01-19T12:13:20;24.80;;;15.60;;
12900;SDS011;6518;50.930;5.344;2023-01-19T12:15:49;23.93;;;14.47;;
12900;SDS011;6518;50.930;5.344;2023-01-19T12:18:23;22.00;;;14.03;;
12900;SDS011;6518;50.930;5.344;2023-01-19T12:20:55;21.17;;;13.13;;
12900;SDS011;6518;50.930;5.344;2023-01-19T12:23:35;25.03;;;14.40;;
12900;SDS011;6518;50.930;5.344;2023-01-19T12:26:19;21.57;;;13.10;;
12900;SDS011;6518;50.930;5.344;2023-01-19T12:28:53;19.37;;;13.00;;
12900;SDS011;6518;50.930;5.344;2023-01-19T12:31:22;19.17;;;13.13;;
12900;SDS011;6518;50.930;5.344;2023-01-19T12:33:51;22.20;;;13.40;;
12900;SDS011;6518;50.930;5.344;2023-01-19T12:36:34;22.17;;;14.37;;
12900;SDS011;6518;50.930;5.344;2023-01-19T12:39:03;21.43;;;13.07;;
12900;SDS011;6518;50.930;5.344;2023-01-19T12:41:32;22.50;;;13.50;;
12900;SDS011;6518;50.930;5.344;2023-01-19T12:46:52;19.60;;;12.30;;
12900;SDS011;6518;50.930;5.344;2023-01-19T12:49:27;21.40;;;13.10;;
12900;SDS011;6518;50.930;5.344;2023-01-19T12:52:09;21.23;;;12.20;;
12900;SDS011;6518;50.930;5.344;2023-01-19T12:54:48;17.33;;;11.57;;
12900;SDS011;6518;50.930;5.344;2023-01-19T12:57:20;19.73;;;12.70;;
12900;SDS011;6518;50.930;5.344;2023-01-19T12:59:54;21.87;;;12.90;;
12900;SDS011;6518;50.930;5.344;2023-01-19T13:08:28;20.57;;;12.87;;
12900;SDS011;6518;50.930;5.344;2023-01-19T13:16:59;23.80;;;13.17;;
12900;SDS011;6518;50.930;5.344;2023-01-19T13:19:31;22.17;;;12.77;;
12900;SDS011;6518;50.930;5.344;2023-01-19T13:25:30;20.60;;;12.43;;
12900;SDS011;6518;50.930;5.344;2023-01-19T13:27:59;20.57;;;12.43;;
12900;SDS011;6518;50.930;5.344;2023-01-19T13:30:32;19.03;;;12.27;;
12900;SDS011;6518;50.930;5.344;2023-01-19T13:33:02;21.50;;;11.77;;
12900;SDS011;6518;50.930;5.344;2023-01-19T13:35:34;21.83;;;11.70;;
12900;SDS011;6518;50.930;5.344;2023-01-19T13:38:01;21.37;;;11.90;;
12900;SDS011;6518;50.930;5.344;2023-01-19T13:40:32;16.90;;;10.33;;
12900;SDS011;6518;50.930;5.344;2023-01-19T13:43:05;20.10;;;11.27;;
12900;SDS011;6518;50.930;5.344;2023-01-19T13:45:39;17.93;;;10.57;;
12900;SDS011;6518;50.930;5.344;2023-01-19T13:48:12;18.77;;;10.67;;
12900;SDS011;6518;50.930;5.344;2023-01-19T13:50:41;16.47;;;9.87;;
12900;SDS011;6518;50.930;5.344;2023-01-19T13:53:21;16.63;;;8.73;;
12900;SDS011;6518;50.930;5.344;2023-01-19T13:56:00;16.03;;;9.30;;
12900;SDS011;6518;50.930;5.344;2023-01-19T13:58:34;15.93;;;9.27;;
12900;SDS011;6518;50.930;5.344;2023-01-19T14:01:01;13.43;;;8.23;;
12900;SDS011;6518;50.930;5.344;2023-01-19T14:03:28;14.97;;;8.10;;
12900;SDS011;6518;50.930;5.344;2023-01-19T14:05:54;10.77;;;7.67;;
12900;SDS011;6518;50.930;5.344;2023-01-19T14:08:22;11.30;;;7.93;;
12900;SDS011;6518;50.930;5.344;2023-01-19T14:10:58;16.87;;;8.47;;
12900;SDS011;6518;50.930;5.344;2023-01-19T14:13:28;14.67;;;8.30;;
12900;SDS011;6518;50.930;5.344;2023-01-19T14:15:57;13.73;;;8.20;;
12900;SDS011;6518;50.930;5.344;2023-01-19T14:18:26;12.60;;;8.53;;
12900;SDS011;6518;50.930;5.344;2023-01-19T14:20:56;17.73;;;8.27;;
12900;SDS011;6518;50.930;5.344;2023-01-19T14:29:20;13.07;;;8.53;;
12900;SDS011;6518;50.930;5.344;2023-01-19T14:31:49;13.43;;;7.53;;
12900;SDS011;6518;50.930;5.344;2023-01-19T14:34:34;14.00;;;8.30;;
12900;SDS011;6518;50.930;5.344;2023-01-19T14:37:04;13.23;;;8.33;;
12900;SDS011;6518;50.930;5.344;2023-01-19T14:39:42;12.47;;;8.33;;
12900;SDS011;6518;50.930;5.344;2023-01-19T14:42:13;14.37;;;8.97;;
12900;SDS011;6518;50.930;5.344;2023-01-19T14:44:46;15.90;;;8.57;;
12900;SDS011;6518;50.930;5.344;2023-01-19T14:47:19;14.77;;;9.67;;
12900;SDS011;6518;50.930;5.344;2023-01-19T14:49:51;21.07;;;10.93;;
12900;SDS011;6518;50.930;5.344;2023-01-19T14:52:20;22.00;;;10.67;;
12900;SDS011;6518;50.930;5.344;2023-01-19T14:54:49;18.57;;;11.23;;
12900;SDS011;6518;50.930;5.344;2023-01-19T14:57:18;18.07;;;10.57;;
12900;SDS011;6518;50.930;5.344;2023-01-19T14:59:46;17.97;;;10.03;;
12900;SDS011;6518;50.930;5.344;2023-01-19T15:02:14;16.13;;;9.63;;
12900;SDS011;6518;50.930;5.344;2023-01-19T15:04:42;19.17;;;9.63;;
12900;SDS011;6518;50.930;5.344;2023-01-19T15:07:11;16.33;;;9.67;;
12900;SDS011;6518;50.930;5.344;2023-01-19T15:09:42;16.87;;;10.70;;
12900;SDS011;6518;50.930;5.344;2023-01-19T15:12:09;20.23;;;9.47;;
12900;SDS011;6518;50.930;5.344;2023-01-19T15:14:38;13.77;;;8.83;;